Windsorville, Connecticut
Current Conditions -  °F | °C
As of 5:37 PM on Monday 24 Nov 2014 (Local Time) from KBDL Reporting Station
Overcast Overcast  
Wind Chill: 62°   Ceiling: 1000
Heat Index: 62°   Visibility: 8mi
Dew Point: 57°   Wind: 14mph
Humidity: 84%   Direction: 200°SSW
Pressure: 29.61"   Gusts: NA
Location:  41.9042°N, 72.5445°W
Report Text: KBDL 242237Z 20012KT 8SM OVC010 17/14 A2961 RMK AO2 T01670139
Loading
Personal Weather Stations






























Interactive Weather Map New forecast layout! Learn more

10-Day Weather Forecast

Advertisements
Track Severe Weather on mobile